sensor_id;sensor_type;location;lat;lon;timestamp;P1;durP1;ratioP1;P2;durP2;ratioP2
58896;SDS011;44677;52.378;10.400;2022-12-18T00:01:03;24.40;;;14.30;;
58896;SDS011;44677;52.378;10.400;2022-12-18T00:03:35;20.80;;;13.60;;
58896;SDS011;44677;52.378;10.400;2022-12-18T00:06:01;20.90;;;12.10;;
58896;SDS011;44677;52.378;10.400;2022-12-18T00:08:27;23.70;;;13.40;;
58896;SDS011;44677;52.378;10.400;2022-12-18T00:10:53;22.60;;;12.60;;
58896;SDS011;44677;52.378;10.400;2022-12-18T00:13:18;20.00;;;11.80;;
58896;SDS011;44677;52.378;10.400;2022-12-18T00:15:44;21.40;;;13.20;;
58896;SDS011;44677;52.378;10.400;2022-12-18T00:18:09;20.40;;;12.00;;
58896;SDS011;44677;52.378;10.400;2022-12-18T00:20:36;19.40;;;12.00;;
58896;SDS011;44677;52.378;10.400;2022-12-18T00:23:02;23.80;;;13.60;;
58896;SDS011;44677;52.378;10.400;2022-12-18T00:25:27;21.00;;;13.60;;
58896;SDS011;44677;52.378;10.400;2022-12-18T00:27:53;24.90;;;12.90;;
58896;SDS011;44677;52.378;10.400;2022-12-18T00:30:18;21.80;;;13.10;;
58896;SDS011;44677;52.378;10.400;2022-12-18T00:32:44;21.90;;;13.00;;
58896;SDS011;44677;52.378;10.400;2022-12-18T00:35:09;24.10;;;14.60;;
58896;SDS011;44677;52.378;10.400;2022-12-18T00:37:34;21.60;;;13.20;;
58896;SDS011;44677;52.378;10.400;2022-12-18T00:40:00;20.40;;;12.10;;
58896;SDS011;44677;52.378;10.400;2022-12-18T00:42:27;19.80;;;12.20;;
58896;SDS011;44677;52.378;10.400;2022-12-18T00:45:13;24.80;;;13.30;;
58896;SDS011;44677;52.378;10.400;2022-12-18T00:47:39;20.20;;;12.50;;
58896;SDS011;44677;52.378;10.400;2022-12-18T00:50:05;19.70;;;12.50;;
58896;SDS011;44677;52.378;10.400;2022-12-18T00:52:31;17.50;;;11.00;;
58896;SDS011;44677;52.378;10.400;2022-12-18T00:54:56;21.80;;;11.70;;
58896;SDS011;44677;52.378;10.400;2022-12-18T00:57:21;22.30;;;13.00;;
58896;SDS011;44677;52.378;10.400;2022-12-18T00:59:47;17.80;;;11.00;;
58896;SDS011;44677;52.378;10.400;2022-12-18T01:02:13;18.70;;;11.60;;
58896;SDS011;44677;52.378;10.400;2022-12-18T01:04:38;18.00;;;11.20;;
58896;SDS011;44677;52.378;10.400;2022-12-18T01:07:03;22.00;;;13.20;;
58896;SDS011;44677;52.378;10.400;2022-12-18T01:09:29;17.90;;;11.30;;
58896;SDS011;44677;52.378;10.400;2022-12-18T01:11:54;17.40;;;10.80;;
58896;SDS011;44677;52.378;10.400;2022-12-18T01:14:19;20.90;;;12.20;;
58896;SDS011;44677;52.378;10.400;2022-12-18T01:16:45;21.30;;;12.20;;
58896;SDS011;44677;52.378;10.400;2022-12-18T01:19:10;17.70;;;11.70;;
58896;SDS011;44677;52.378;10.400;2022-12-18T01:21:36;23.80;;;12.60;;
58896;SDS011;44677;52.378;10.400;2022-12-18T01:24:02;22.00;;;11.40;;
58896;SDS011;44677;52.378;10.400;2022-12-18T01:26:28;19.70;;;12.00;;
58896;SDS011;44677;52.378;10.400;2022-12-18T01:28:56;20.50;;;12.10;;
58896;SDS011;44677;52.378;10.400;2022-12-18T01:31:23;21.70;;;13.60;;
58896;SDS011;44677;52.378;10.400;2022-12-18T01:33:53;19.10;;;11.60;;
58896;SDS011;44677;52.378;10.400;2022-12-18T01:36:23;20.50;;;12.80;;
58896;SDS011;44677;52.378;10.400;2022-12-18T01:38:51;19.20;;;11.40;;
58896;SDS011;44677;52.378;10.400;2022-12-18T01:41:18;20.60;;;13.10;;
58896;SDS011;44677;52.378;10.400;2022-12-18T01:43:54;18.60;;;11.40;;
58896;SDS011;44677;52.378;10.400;2022-12-18T01:46:23;21.00;;;12.70;;
58896;SDS011;44677;52.378;10.400;2022-12-18T01:51:16;19.80;;;10.60;;
58896;SDS011;44677;52.378;10.400;2022-12-18T01:53:42;18.30;;;10.80;;
58896;SDS011;44677;52.378;10.400;2022-12-18T01:56:11;18.50;;;11.60;;
58896;SDS011;44677;52.378;10.400;2022-12-18T01:58:41;22.40;;;11.90;;
58896;SDS011;44677;52.378;10.400;2022-12-18T02:03:51;15.80;;;8.60;;
58896;SDS011;44677;52.378;10.400;2022-12-18T02:06:27;22.70;;;12.70;;
58896;SDS011;44677;52.378;10.400;2022-12-18T02:09:07;18.70;;;10.20;;
58896;SDS011;44677;52.378;10.400;2022-12-18T02:14:32;16.90;;;11.30;;
58896;SDS011;44677;52.378;10.400;2022-12-18T02:17:11;21.40;;;11.90;;
58896;SDS011;44677;52.378;10.400;2022-12-18T02:27:56;19.60;;;10.90;;
58896;SDS011;44677;52.378;10.400;2022-12-18T02:30:24;17.20;;;10.30;;
58896;SDS011;44677;52.378;10.400;2022-12-18T02:35:22;17.60;;;10.20;;
58896;SDS011;44677;52.378;10.400;2022-12-18T02:37:50;19.70;;;11.10;;
58896;SDS011;44677;52.378;10.400;2022-12-18T02:40:17;22.40;;;13.70;;
58896;SDS011;44677;52.378;10.400;2022-12-18T02:42:45;20.10;;;12.50;;
58896;SDS011;44677;52.378;10.400;2022-12-18T02:45:14;20.90;;;11.80;;
58896;SDS011;44677;52.378;10.400;2022-12-18T02:47:40;17.50;;;11.10;;
58896;SDS011;44677;52.378;10.400;2022-12-18T02:52:54;21.30;;;12.80;;
58896;SDS011;44677;52.378;10.400;2022-12-18T02:58:55;15.90;;;9.50;;
58896;SDS011;44677;52.378;10.400;2022-12-18T03:01:43;17.60;;;9.80;;
58896;SDS011;44677;52.378;10.400;2022-12-18T03:04:23;17.30;;;10.00;;
58896;SDS011;44677;52.378;10.400;2022-12-18T03:06:53;16.20;;;9.30;;
58896;SDS011;44677;52.378;10.400;2022-12-18T03:09:22;14.00;;;7.90;;
58896;SDS011;44677;52.378;10.400;2022-12-18T03:11:58;17.10;;;10.00;;
58896;SDS011;44677;52.378;10.400;2022-12-18T03:17:32;18.70;;;11.80;;
58896;SDS011;44677;52.378;10.400;2022-12-18T03:20:00;17.80;;;10.60;;
58896;SDS011;44677;52.378;10.400;2022-12-18T03:22:30;19.80;;;11.60;;
58896;SDS011;44677;52.378;10.400;2022-12-18T03:24:57;20.20;;;12.00;;
58896;SDS011;44677;52.378;10.400;2022-12-18T03:27:25;19.90;;;12.20;;
58896;SDS011;44677;52.378;10.400;2022-12-18T03:29:54;18.30;;;11.00;;
58896;SDS011;44677;52.378;10.400;2022-12-18T03:32:35;21.70;;;13.20;;
58896;SDS011;44677;52.378;10.400;2022-12-18T03:35:06;21.20;;;13.30;;
58896;SDS011;44677;52.378;10.400;2022-12-18T03:37:34;20.10;;;11.30;;
58896;SDS011;44677;52.378;10.400;2022-12-18T03:40:00;15.20;;;10.40;;
58896;SDS011;44677;52.378;10.400;2022-12-18T03:42:28;18.10;;;10.60;;
58896;SDS011;44677;52.378;10.400;2022-12-18T03:45:26;15.70;;;10.00;;
58896;SDS011;44677;52.378;10.400;2022-12-18T03:48:06;18.00;;;9.90;;
58896;SDS011;44677;52.378;10.400;2022-12-18T03:50:52;16.30;;;10.10;;
58896;SDS011;44677;52.378;10.400;2022-12-18T03:56:06;22.00;;;11.10;;
58896;SDS011;44677;52.378;10.400;2022-12-18T03:58:36;20.00;;;10.70;;
58896;SDS011;44677;52.378;10.400;2022-12-18T04:01:13;21.40;;;11.20;;
58896;SDS011;44677;52.378;10.400;2022-12-18T04:03:41;14.40;;;8.70;;
58896;SDS011;44677;52.378;10.400;2022-12-18T04:06:07;17.00;;;10.20;;
58896;SDS011;44677;52.378;10.400;2022-12-18T04:08:33;19.70;;;12.40;;
58896;SDS011;44677;52.378;10.400;2022-12-18T04:11:02;18.40;;;11.70;;
58896;SDS011;44677;52.378;10.400;2022-12-18T04:13:28;18.40;;;11.70;;
58896;SDS011;44677;52.378;10.400;2022-12-18T04:15:59;20.20;;;11.10;;
58896;SDS011;44677;52.378;10.400;2022-12-18T04:18:25;19.90;;;10.90;;
58896;SDS011;44677;52.378;10.400;2022-12-18T04:20:51;14.60;;;9.30;;
58896;SDS011;44677;52.378;10.400;2022-12-18T04:23:17;21.20;;;11.00;;
58896;SDS011;44677;52.378;10.400;2022-12-18T04:25:42;21.10;;;12.40;;
58896;SDS011;44677;52.378;10.400;2022-12-18T04:28:10;16.60;;;10.40;;
58896;SDS011;44677;52.378;10.400;2022-12-18T04:30:36;20.60;;;10.50;;
58896;SDS011;44677;52.378;10.400;2022-12-18T04:33:02;15.50;;;9.50;;
58896;SDS011;44677;52.378;10.400;2022-12-18T04:37:55;17.80;;;10.40;;
58896;SDS011;44677;52.378;10.400;2022-12-18T04:40:21;18.20;;;11.00;;
58896;SDS011;44677;52.378;10.400;2022-12-18T04:42:46;22.50;;;11.80;;
58896;SDS011;44677;52.378;10.400;2022-12-18T04:45:12;15.40;;;9.60;;
58896;SDS011;44677;52.378;10.400;2022-12-18T04:47:37;17.30;;;10.90;;
58896;SDS011;44677;52.378;10.400;2022-12-18T04:50:03;21.60;;;13.30;;
58896;SDS011;44677;52.378;10.400;2022-12-18T04:52:28;21.10;;;10.70;;
58896;SDS011;44677;52.378;10.400;2022-12-18T04:54:56;18.60;;;11.40;;
58896;SDS011;44677;52.378;10.400;2022-12-18T04:57:22;21.90;;;12.80;;
58896;SDS011;44677;52.378;10.400;2022-12-18T04:59:47;21.30;;;13.00;;
58896;SDS011;44677;52.378;10.400;2022-12-18T05:02:12;18.60;;;11.60;;
58896;SDS011;44677;52.378;10.400;2022-12-18T05:04:38;24.50;;;10.90;;
58896;SDS011;44677;52.378;10.400;2022-12-18T05:07:03;18.30;;;11.60;;
58896;SDS011;44677;52.378;10.400;2022-12-18T05:09:29;19.30;;;11.30;;
58896;SDS011;44677;52.378;10.400;2022-12-18T05:11:54;17.00;;;9.10;;
58896;SDS011;44677;52.378;10.400;2022-12-18T05:14:20;20.70;;;10.50;;
58896;SDS011;44677;52.378;10.400;2022-12-18T05:16:45;19.00;;;11.00;;
58896;SDS011;44677;52.378;10.400;2022-12-18T05:19:10;22.50;;;12.40;;
58896;SDS011;44677;52.378;10.400;2022-12-18T05:21:36;18.90;;;10.70;;
58896;SDS011;44677;52.378;10.400;2022-12-18T05:24:01;14.50;;;9.10;;
58896;SDS011;44677;52.378;10.400;2022-12-18T05:26:27;18.70;;;10.70;;
58896;SDS011;44677;52.378;10.400;2022-12-18T05:28:52;21.40;;;12.60;;
58896;SDS011;44677;52.378;10.400;2022-12-18T05:31:18;22.20;;;11.40;;
58896;SDS011;44677;52.378;10.400;2022-12-18T05:33:43;14.20;;;9.60;;
58896;SDS011;44677;52.378;10.400;2022-12-18T05:36:09;17.30;;;10.50;;
58896;SDS011;44677;52.378;10.400;2022-12-18T05:38:36;19.50;;;10.70;;
58896;SDS011;44677;52.378;10.400;2022-12-18T05:41:02;19.60;;;11.20;;
58896;SDS011;44677;52.378;10.400;2022-12-18T05:43:28;19.10;;;10.40;;
58896;SDS011;44677;52.378;10.400;2022-12-18T05:45:55;20.30;;;12.20;;
58896;SDS011;44677;52.378;10.400;2022-12-18T05:48:21;23.60;;;12.00;;
58896;SDS011;44677;52.378;10.400;2022-12-18T05:50:47;17.80;;;10.60;;
58896;SDS011;44677;52.378;10.400;2022-12-18T05:53:13;20.60;;;10.70;;
58896;SDS011;44677;52.378;10.400;2022-12-18T05:55:41;18.60;;;11.00;;
58896;SDS011;44677;52.378;10.400;2022-12-18T05:58:08;22.40;;;12.80;;
58896;SDS011;44677;52.378;10.400;2022-12-18T06:00:35;18.20;;;9.90;;
58896;SDS011;44677;52.378;10.400;2022-12-18T06:03:05;20.70;;;11.50;;
58896;SDS011;44677;52.378;10.400;2022-12-18T06:05:35;19.00;;;11.10;;
58896;SDS011;44677;52.378;10.400;2022-12-18T06:08:02;20.80;;;11.30;;
58896;SDS011;44677;52.378;10.400;2022-12-18T06:10:27;22.60;;;12.90;;
58896;SDS011;44677;52.378;10.400;2022-12-18T06:12:53;17.60;;;11.30;;
58896;SDS011;44677;52.378;10.400;2022-12-18T06:15:18;21.70;;;12.10;;
58896;SDS011;44677;52.378;10.400;2022-12-18T06:17:43;24.70;;;12.60;;
58896;SDS011;44677;52.378;10.400;2022-12-18T06:20:09;21.70;;;12.20;;
58896;SDS011;44677;52.378;10.400;2022-12-18T06:22:34;25.40;;;13.10;;
58896;SDS011;44677;52.378;10.400;2022-12-18T06:25:00;26.70;;;13.50;;
58896;SDS011;44677;52.378;10.400;2022-12-18T06:27:25;21.40;;;13.50;;
58896;SDS011;44677;52.378;10.400;2022-12-18T06:29:51;20.60;;;13.70;;
58896;SDS011;44677;52.378;10.400;2022-12-18T06:32:16;18.30;;;11.30;;
58896;SDS011;44677;52.378;10.400;2022-12-18T06:34:41;23.30;;;13.10;;
58896;SDS011;44677;52.378;10.400;2022-12-18T06:37:07;20.80;;;11.90;;
58896;SDS011;44677;52.378;10.400;2022-12-18T06:39:32;23.90;;;12.30;;
58896;SDS011;44677;52.378;10.400;2022-12-18T06:41:57;18.80;;;11.80;;
58896;SDS011;44677;52.378;10.400;2022-12-18T06:44:23;19.30;;;11.20;;
58896;SDS011;44677;52.378;10.400;2022-12-18T06:46:48;24.70;;;12.30;;
58896;SDS011;44677;52.378;10.400;2022-12-18T06:49:14;19.00;;;11.60;;
58896;SDS011;44677;52.378;10.400;2022-12-18T06:51:41;21.80;;;11.70;;
58896;SDS011;44677;52.378;10.400;2022-12-18T06:54:06;20.90;;;11.40;;
58896;SDS011;44677;52.378;10.400;2022-12-18T06:56:32;21.30;;;12.50;;
58896;SDS011;44677;52.378;10.400;2022-12-18T06:58:57;22.00;;;12.30;;
58896;SDS011;44677;52.378;10.400;2022-12-18T07:01:22;23.40;;;12.30;;
58896;SDS011;44677;52.378;10.400;2022-12-18T07:03:51;20.50;;;12.80;;
58896;SDS011;44677;52.378;10.400;2022-12-18T07:06:19;19.10;;;11.30;;
58896;SDS011;44677;52.378;10.400;2022-12-18T07:11:11;18.60;;;10.30;;
58896;SDS011;44677;52.378;10.400;2022-12-18T07:13:37;21.00;;;11.30;;
58896;SDS011;44677;52.378;10.400;2022-12-18T07:16:10;21.60;;;10.50;;
58896;SDS011;44677;52.378;10.400;2022-12-18T07:18:38;19.90;;;10.50;;
58896;SDS011;44677;52.378;10.400;2022-12-18T07:21:04;22.90;;;11.80;;
58896;SDS011;44677;52.378;10.400;2022-12-18T07:23:32;20.50;;;12.20;;
58896;SDS011;44677;52.378;10.400;2022-12-18T07:26:09;20.50;;;11.30;;
58896;SDS011;44677;52.378;10.400;2022-12-18T07:28:36;21.40;;;12.60;;
58896;SDS011;44677;52.378;10.400;2022-12-18T07:31:07;24.80;;;12.10;;
58896;SDS011;44677;52.378;10.400;2022-12-18T07:33:34;22.90;;;12.60;;
58896;SDS011;44677;52.378;10.400;2022-12-18T07:36:00;17.60;;;11.00;;
58896;SDS011;44677;52.378;10.400;2022-12-18T07:38:26;19.10;;;11.00;;
58896;SDS011;44677;52.378;10.400;2022-12-18T07:40:52;21.50;;;11.80;;
58896;SDS011;44677;52.378;10.400;2022-12-18T07:43:17;18.10;;;11.50;;
58896;SDS011;44677;52.378;10.400;2022-12-18T07:45:43;19.50;;;10.10;;
58896;SDS011;44677;52.378;10.400;2022-12-18T07:48:09;26.80;;;14.00;;
58896;SDS011;44677;52.378;10.400;2022-12-18T07:50:34;25.30;;;12.90;;
58896;SDS011;44677;52.378;10.400;2022-12-18T07:53:00;37.60;;;16.70;;
58896;SDS011;44677;52.378;10.400;2022-12-18T07:55:30;23.90;;;11.80;;
58896;SDS011;44677;52.378;10.400;2022-12-18T07:57:56;25.20;;;11.30;;
58896;SDS011;44677;52.378;10.400;2022-12-18T08:00:21;26.00;;;12.80;;
58896;SDS011;44677;52.378;10.400;2022-12-18T08:02:47;21.40;;;12.00;;
58896;SDS011;44677;52.378;10.400;2022-12-18T08:05:12;24.40;;;12.20;;
58896;SDS011;44677;52.378;10.400;2022-12-18T08:07:38;23.00;;;12.20;;
58896;SDS011;44677;52.378;10.400;2022-12-18T08:10:04;24.70;;;14.00;;
58896;SDS011;44677;52.378;10.400;2022-12-18T08:12:31;26.90;;;15.40;;
58896;SDS011;44677;52.378;10.400;2022-12-18T08:14:56;24.80;;;14.70;;
58896;SDS011;44677;52.378;10.400;2022-12-18T08:17:21;25.50;;;12.50;;
58896;SDS011;44677;52.378;10.400;2022-12-18T08:19:47;25.00;;;14.10;;
58896;SDS011;44677;52.378;10.400;2022-12-18T08:22:12;25.70;;;14.80;;
58896;SDS011;44677;52.378;10.400;2022-12-18T08:24:37;22.10;;;13.40;;
58896;SDS011;44677;52.378;10.400;2022-12-18T08:27:03;24.00;;;14.40;;
58896;SDS011;44677;52.378;10.400;2022-12-18T08:29:28;28.20;;;14.10;;
58896;SDS011;44677;52.378;10.400;2022-12-18T08:31:55;25.00;;;13.20;;
58896;SDS011;44677;52.378;10.400;2022-12-18T08:34:21;28.20;;;15.70;;
58896;SDS011;44677;52.378;10.400;2022-12-18T08:36:46;29.60;;;15.80;;
58896;SDS011;44677;52.378;10.400;2022-12-18T08:39:11;24.50;;;14.40;;
58896;SDS011;44677;52.378;10.400;2022-12-18T08:41:40;26.00;;;13.90;;
58896;SDS011;44677;52.378;10.400;2022-12-18T08:44:07;25.20;;;13.70;;
58896;SDS011;44677;52.378;10.400;2022-12-18T08:46:51;23.80;;;12.30;;
58896;SDS011;44677;52.378;10.400;2022-12-18T08:49:16;21.60;;;11.90;;
58896;SDS011;44677;52.378;10.400;2022-12-18T08:51:42;29.50;;;15.70;;
58896;SDS011;44677;52.378;10.400;2022-12-18T08:54:08;26.30;;;13.80;;
58896;SDS011;44677;52.378;10.400;2022-12-18T08:56:37;24.00;;;13.70;;
58896;SDS011;44677;52.378;10.400;2022-12-18T08:59:03;23.90;;;12.60;;
58896;SDS011;44677;52.378;10.400;2022-12-18T09:01:29;27.80;;;14.40;;
58896;SDS011;44677;52.378;10.400;2022-12-18T09:03:54;25.20;;;13.60;;
58896;SDS011;44677;52.378;10.400;2022-12-18T09:06:20;23.20;;;13.80;;
58896;SDS011;44677;52.378;10.400;2022-12-18T09:08:46;23.00;;;12.70;;
58896;SDS011;44677;52.378;10.400;2022-12-18T09:11:13;27.10;;;15.60;;
58896;SDS011;44677;52.378;10.400;2022-12-18T09:13:40;26.30;;;15.00;;
58896;SDS011;44677;52.378;10.400;2022-12-18T09:16:05;24.40;;;14.60;;
58896;SDS011;44677;52.378;10.400;2022-12-18T09:18:31;28.30;;;15.30;;
58896;SDS011;44677;52.378;10.400;2022-12-18T09:20:57;30.40;;;16.10;;
58896;SDS011;44677;52.378;10.400;2022-12-18T09:23:22;28.00;;;15.70;;
58896;SDS011;44677;52.378;10.400;2022-12-18T09:25:47;26.50;;;14.10;;
58896;SDS011;44677;52.378;10.400;2022-12-18T09:28:14;27.70;;;15.70;;
58896;SDS011;44677;52.378;10.400;2022-12-18T09:30:44;29.50;;;14.40;;
58896;SDS011;44677;52.378;10.400;2022-12-18T09:33:11;35.80;;;19.20;;
58896;SDS011;44677;52.378;10.400;2022-12-18T09:35:37;28.10;;;16.80;;
58896;SDS011;44677;52.378;10.400;2022-12-18T09:38:04;24.20;;;13.00;;
58896;SDS011;44677;52.378;10.400;2022-12-18T09:40:32;28.00;;;15.20;;
58896;SDS011;44677;52.378;10.400;2022-12-18T09:43:01;27.20;;;15.60;;
58896;SDS011;44677;52.378;10.400;2022-12-18T09:45:30;31.90;;;17.60;;
58896;SDS011;44677;52.378;10.400;2022-12-18T09:48:05;30.10;;;15.70;;
58896;SDS011;44677;52.378;10.400;2022-12-18T09:50:36;30.40;;;17.40;;
58896;SDS011;44677;52.378;10.400;2022-12-18T09:53:05;31.90;;;18.40;;
58896;SDS011;44677;52.378;10.400;2022-12-18T09:55:40;27.10;;;15.00;;
58896;SDS011;44677;52.378;10.400;2022-12-18T09:58:13;25.20;;;14.30;;
58896;SDS011;44677;52.378;10.400;2022-12-18T10:00:54;22.50;;;13.40;;
58896;SDS011;44677;52.378;10.400;2022-12-18T10:03:20;32.00;;;14.70;;
58896;SDS011;44677;52.378;10.400;2022-12-18T10:06:06;37.90;;;18.00;;
58896;SDS011;44677;52.378;10.400;2022-12-18T10:15:11;27.10;;;14.20;;
58896;SDS011;44677;52.378;10.400;2022-12-18T10:20:21;26.90;;;13.90;;
58896;SDS011;44677;52.378;10.400;2022-12-18T10:23:13;22.20;;;12.00;;
58896;SDS011;44677;52.378;10.400;2022-12-18T10:26:01;22.80;;;11.30;;
58896;SDS011;44677;52.378;10.400;2022-12-18T10:28:27;20.60;;;11.40;;
58896;SDS011;44677;52.378;10.400;2022-12-18T10:30:55;19.70;;;12.00;;
58896;SDS011;44677;52.378;10.400;2022-12-18T10:33:21;23.90;;;13.10;;
58896;SDS011;44677;52.378;10.400;2022-12-18T10:35:51;21.80;;;12.40;;
58896;SDS011;44677;52.378;10.400;2022-12-18T10:40:50;25.50;;;13.20;;
58896;SDS011;44677;52.378;10.400;2022-12-18T10:43:20;24.20;;;12.90;;
58896;SDS011;44677;52.378;10.400;2022-12-18T10:51:11;22.60;;;12.30;;
58896;SDS011;44677;52.378;10.400;2022-12-18T10:54:12;19.60;;;11.60;;
58896;SDS011;44677;52.378;10.400;2022-12-18T10:56:42;22.70;;;12.70;;
58896;SDS011;44677;52.378;10.400;2022-12-18T10:59:13;22.40;;;12.70;;
58896;SDS011;44677;52.378;10.400;2022-12-18T11:01:50;20.20;;;11.30;;
58896;SDS011;44677;52.378;10.400;2022-12-18T11:04:28;19.10;;;11.20;;
58896;SDS011;44677;52.378;10.400;2022-12-18T11:07:06;21.00;;;11.00;;
58896;SDS011;44677;52.378;10.400;2022-12-18T11:09:37;17.70;;;10.30;;
58896;SDS011;44677;52.378;10.400;2022-12-18T11:12:04;18.70;;;11.10;;
58896;SDS011;44677;52.378;10.400;2022-12-18T11:14:46;18.50;;;11.40;;
58896;SDS011;44677;52.378;10.400;2022-12-18T11:17:20;17.80;;;11.20;;
58896;SDS011;44677;52.378;10.400;2022-12-18T11:19:55;19.00;;;11.00;;
58896;SDS011;44677;52.378;10.400;2022-12-18T11:22:26;17.70;;;10.20;;
58896;SDS011;44677;52.378;10.400;2022-12-18T11:25:04;22.90;;;12.40;;
58896;SDS011;44677;52.378;10.400;2022-12-18T11:27:31;20.90;;;12.80;;
58896;SDS011;44677;52.378;10.400;2022-12-18T11:30:08;24.50;;;14.70;;
58896;SDS011;44677;52.378;10.400;2022-12-18T11:33:15;19.70;;;12.00;;
58896;SDS011;44677;52.378;10.400;2022-12-18T11:38:26;18.10;;;10.20;;
58896;SDS011;44677;52.378;10.400;2022-12-18T11:41:14;20.30;;;11.00;;
58896;SDS011;44677;52.378;10.400;2022-12-18T11:44:28;18.10;;;11.20;;
58896;SDS011;44677;52.378;10.400;2022-12-18T11:47:01;22.50;;;12.40;;
58896;SDS011;44677;52.378;10.400;2022-12-18T11:49:33;17.50;;;12.10;;
58896;SDS011;44677;52.378;10.400;2022-12-18T11:52:10;22.20;;;14.10;;
58896;SDS011;44677;52.378;10.400;2022-12-18T11:54:39;19.80;;;12.00;;
58896;SDS011;44677;52.378;10.400;2022-12-18T12:00:18;19.30;;;11.60;;
58896;SDS011;44677;52.378;10.400;2022-12-18T12:14:05;17.10;;;10.50;;
58896;SDS011;44677;52.378;10.400;2022-12-18T12:16:59;21.60;;;13.10;;
58896;SDS011;44677;52.378;10.400;2022-12-18T12:19:42;20.50;;;12.00;;
58896;SDS011;44677;52.378;10.400;2022-12-18T12:31:12;18.70;;;10.50;;
58896;SDS011;44677;52.378;10.400;2022-12-18T12:34:10;17.70;;;11.70;;
58896;SDS011;44677;52.378;10.400;2022-12-18T12:39:34;20.60;;;11.80;;
58896;SDS011;44677;52.378;10.400;2022-12-18T12:42:03;19.00;;;11.10;;
58896;SDS011;44677;52.378;10.400;2022-12-18T12:44:53;18.00;;;10.40;;
58896;SDS011;44677;52.378;10.400;2022-12-18T12:47:21;17.00;;;10.40;;
58896;SDS011;44677;52.378;10.400;2022-12-18T12:50:12;15.00;;;10.00;;
58896;SDS011;44677;52.378;10.400;2022-12-18T12:52:42;18.80;;;11.60;;
58896;SDS011;44677;52.378;10.400;2022-12-18T12:55:16;23.00;;;14.10;;
58896;SDS011;44677;52.378;10.400;2022-12-18T13:00:30;17.90;;;11.30;;
58896;SDS011;44677;52.378;10.400;2022-12-18T13:06:02;19.00;;;11.60;;
58896;SDS011;44677;52.378;10.400;2022-12-18T13:08:50;20.30;;;12.40;;
58896;SDS011;44677;52.378;10.400;2022-12-18T13:11:30;17.00;;;12.20;;
58896;SDS011;44677;52.378;10.400;2022-12-18T13:14:20;16.30;;;10.40;;
58896;SDS011;44677;52.378;10.400;2022-12-18T13:16:47;14.10;;;9.90;;
58896;SDS011;44677;52.378;10.400;2022-12-18T13:19:21;16.30;;;9.00;;
58896;SDS011;44677;52.378;10.400;2022-12-18T13:21:52;14.80;;;9.70;;
58896;SDS011;44677;52.378;10.400;2022-12-18T13:24:26;18.20;;;10.00;;
58896;SDS011;44677;52.378;10.400;2022-12-18T13:26:53;19.10;;;11.10;;
58896;SDS011;44677;52.378;10.400;2022-12-18T13:29:40;19.20;;;12.20;;
58896;SDS011;44677;52.378;10.400;2022-12-18T13:34:35;12.80;;;7.80;;
58896;SDS011;44677;52.378;10.400;2022-12-18T13:39:58;15.60;;;9.80;;
58896;SDS011;44677;52.378;10.400;2022-12-18T13:48:13;18.70;;;10.50;;
58896;SDS011;44677;52.378;10.400;2022-12-18T13:50:52;21.40;;;12.50;;
58896;SDS011;44677;52.378;10.400;2022-12-18T13:53:24;16.20;;;7.50;;
58896;SDS011;44677;52.378;10.400;2022-12-18T13:55:53;19.20;;;12.00;;
58896;SDS011;44677;52.378;10.400;2022-12-18T13:58:18;19.60;;;11.70;;
58896;SDS011;44677;52.378;10.400;2022-12-18T14:00:44;18.50;;;11.60;;
58896;SDS011;44677;52.378;10.400;2022-12-18T14:03:17;19.50;;;11.30;;
58896;SDS011;44677;52.378;10.400;2022-12-18T14:05:44;17.80;;;10.20;;
58896;SDS011;44677;52.378;10.400;2022-12-18T14:08:14;17.10;;;10.70;;
58896;SDS011;44677;52.378;10.400;2022-12-18T14:10:49;18.70;;;11.00;;
58896;SDS011;44677;52.378;10.400;2022-12-18T14:13:32;21.60;;;13.10;;
58896;SDS011;44677;52.378;10.400;2022-12-18T14:16:01;20.20;;;12.30;;
58896;SDS011;44677;52.378;10.400;2022-12-18T14:19:02;22.30;;;11.50;;
58896;SDS011;44677;52.378;10.400;2022-12-18T14:21:22;16.70;;;9.90;;
58896;SDS011;44677;52.378;10.400;2022-12-18T14:24:03;24.10;;;15.20;;
58896;SDS011;44677;52.378;10.400;2022-12-18T14:26:29;28.40;;;15.30;;
58896;SDS011;44677;52.378;10.400;2022-12-18T14:28:57;29.40;;;15.30;;
58896;SDS011;44677;52.378;10.400;2022-12-18T14:31:27;27.40;;;14.10;;
58896;SDS011;44677;52.378;10.400;2022-12-18T14:33:54;24.80;;;15.80;;
58896;SDS011;44677;52.378;10.400;2022-12-18T14:36:21;22.30;;;13.70;;
58896;SDS011;44677;52.378;10.400;2022-12-18T14:38:57;23.70;;;13.80;;
58896;SDS011;44677;52.378;10.400;2022-12-18T14:41:23;16.70;;;11.40;;
58896;SDS011;44677;52.378;10.400;2022-12-18T14:43:51;21.20;;;12.10;;
58896;SDS011;44677;52.378;10.400;2022-12-18T14:46:38;24.20;;;13.60;;
58896;SDS011;44677;52.378;10.400;2022-12-18T14:49:19;20.20;;;13.70;;
58896;SDS011;44677;52.378;10.400;2022-12-18T14:51:55;20.90;;;12.40;;
58896;SDS011;44677;52.378;10.400;2022-12-18T14:54:22;20.40;;;10.70;;
58896;SDS011;44677;52.378;10.400;2022-12-18T14:56:50;26.30;;;12.60;;
58896;SDS011;44677;52.378;10.400;2022-12-18T14:59:31;15.20;;;10.50;;
58896;SDS011;44677;52.378;10.400;2022-12-18T15:04:45;15.60;;;10.30;;
58896;SDS011;44677;52.378;10.400;2022-12-18T15:09:36;14.70;;;9.50;;
58896;SDS011;44677;52.378;10.400;2022-12-18T15:12:02;16.70;;;9.30;;
58896;SDS011;44677;52.378;10.400;2022-12-18T15:14:32;15.90;;;9.50;;
58896;SDS011;44677;52.378;10.400;2022-12-18T15:17:00;15.40;;;8.10;;
58896;SDS011;44677;52.378;10.400;2022-12-18T15:19:37;15.90;;;10.20;;
58896;SDS011;44677;52.378;10.400;2022-12-18T15:22:26;16.40;;;10.20;;
58896;SDS011;44677;52.378;10.400;2022-12-18T15:24:55;14.20;;;9.40;;
58896;SDS011;44677;52.378;10.400;2022-12-18T15:27:26;16.60;;;10.60;;
58896;SDS011;44677;52.378;10.400;2022-12-18T15:32:32;17.50;;;10.40;;
58896;SDS011;44677;52.378;10.400;2022-12-18T15:37:38;16.80;;;10.10;;
58896;SDS011;44677;52.378;10.400;2022-12-18T15:40:07;15.40;;;10.00;;
58896;SDS011;44677;52.378;10.400;2022-12-18T15:42:36;16.30;;;9.70;;
58896;SDS011;44677;52.378;10.400;2022-12-18T15:45:20;16.90;;;9.90;;
58896;SDS011;44677;52.378;10.400;2022-12-18T15:47:46;20.50;;;11.30;;
58896;SDS011;44677;52.378;10.400;2022-12-18T15:50:11;16.50;;;10.70;;
58896;SDS011;44677;52.378;10.400;2022-12-18T15:52:41;17.90;;;10.30;;
58896;SDS011;44677;52.378;10.400;2022-12-18T15:55:18;18.00;;;10.20;;
58896;SDS011;44677;52.378;10.400;2022-12-18T15:58:07;20.80;;;10.70;;
58896;SDS011;44677;52.378;10.400;2022-12-18T16:00:34;15.50;;;9.40;;
58896;SDS011;44677;52.378;10.400;2022-12-18T16:03:01;16.50;;;10.10;;
58896;SDS011;44677;52.378;10.400;2022-12-18T16:05:26;17.60;;;11.90;;
58896;SDS011;44677;52.378;10.400;2022-12-18T16:07:52;27.70;;;14.80;;
58896;SDS011;44677;52.378;10.400;2022-12-18T16:10:18;25.80;;;14.10;;
58896;SDS011;44677;52.378;10.400;2022-12-18T16:12:44;22.00;;;13.60;;
58896;SDS011;44677;52.378;10.400;2022-12-18T16:15:10;21.90;;;13.20;;